createdAt,value
2023-05-23T00:02:16.387Z,13.90
2023-05-23T00:04:44.219Z,13.90
2023-05-23T00:07:10.993Z,13.90
2023-05-23T00:09:37.940Z,13.90
2023-05-23T00:12:05.209Z,13.90
2023-05-23T00:14:33.732Z,13.90
2023-05-23T00:17:01.479Z,13.90
2023-05-23T00:19:28.525Z,13.90
2023-05-23T00:21:58.316Z,13.80
2023-05-23T00:24:25.135Z,13.80
2023-05-23T00:26:52.013Z,13.80
2023-05-23T00:29:19.572Z,13.70
2023-05-23T00:31:47.476Z,13.70
2023-05-23T00:34:17.457Z,13.70
2023-05-23T00:36:47.324Z,13.70
2023-05-23T00:39:19.385Z,13.60
2023-05-23T00:41:52.984Z,13.60
2023-05-23T00:44:21.111Z,13.60
2023-05-23T00:46:53.067Z,13.60
2023-05-23T00:49:22.155Z,13.60
2023-05-23T00:51:49.574Z,13.60
2023-05-23T00:54:21.446Z,13.50
2023-05-23T00:56:48.672Z,13.50
2023-05-23T00:59:16.103Z,13.50
2023-05-23T01:01:46.816Z,13.60
2023-05-23T01:04:14.759Z,13.50
2023-05-23T01:06:41.677Z,13.50
2023-05-23T01:09:09.622Z,13.50
2023-05-23T01:12:09.890Z,13.60
2023-05-23T01:14:48.627Z,13.50
2023-05-23T01:17:31.885Z,13.50
2023-05-23T01:20:24.190Z,13.40
2023-05-23T01:23:32.864Z,13.40
2023-05-23T01:26:28.140Z,13.30
2023-05-23T01:29:05.749Z,13.30
2023-05-23T01:31:34.826Z,13.30
2023-05-23T01:34:02.734Z,13.30
2023-05-23T01:36:29.543Z,13.30
2023-05-23T01:38:56.351Z,13.30
2023-05-23T01:41:23.174Z,13.40
2023-05-23T01:43:50.017Z,13.40
2023-05-23T01:46:17.299Z,13.30
2023-05-23T01:48:45.082Z,13.30
2023-05-23T01:51:12.419Z,13.30
2023-05-23T01:53:39.297Z,13.20
2023-05-23T01:56:06.764Z,13.20
2023-05-23T01:58:33.755Z,13.10
2023-05-23T02:01:01.091Z,13.10
2023-05-23T02:03:28.319Z,13.10
2023-05-23T02:05:55.219Z,13.10
2023-05-23T02:08:22.013Z,13.10
2023-05-23T02:10:48.761Z,13.10
2023-05-23T02:13:15.514Z,13.10
2023-05-23T02:15:42.391Z,13.10
2023-05-23T02:18:09.339Z,13.00
2023-05-23T02:20:36.140Z,13.00
2023-05-23T02:23:02.929Z,13.00
2023-05-23T02:25:29.714Z,13.00
2023-05-23T02:27:56.489Z,13.00
2023-05-23T02:30:23.237Z,12.90
2023-05-23T02:32:51.554Z,12.90
2023-05-23T02:35:18.311Z,12.90
2023-05-23T02:37:45.079Z,12.90
2023-05-23T02:40:12.169Z,12.90
2023-05-23T02:42:38.952Z,13.00
2023-05-23T02:45:06.340Z,13.00
2023-05-23T02:47:33.247Z,13.00
2023-05-23T02:50:00.047Z,12.90
2023-05-23T02:52:26.866Z,13.00
2023-05-23T02:54:53.729Z,13.00
2023-05-23T02:57:20.472Z,13.00
2023-05-23T02:59:47.218Z,13.10
2023-05-23T03:02:14.132Z,13.10
2023-05-23T03:04:41.100Z,13.20
2023-05-23T03:07:11.695Z,13.20
2023-05-23T03:09:47.293Z,13.30
2023-05-23T03:12:14.092Z,13.40
2023-05-23T03:14:41.232Z,13.40
2023-05-23T03:17:07.958Z,13.50
2023-05-23T03:19:36.631Z,13.60
2023-05-23T03:22:03.895Z,13.70
2023-05-23T03:24:31.800Z,13.80
2023-05-23T03:26:58.545Z,13.90
2023-05-23T03:29:25.343Z,13.90
2023-05-23T03:31:53.108Z,14.00
2023-05-23T03:34:19.891Z,14.10
2023-05-23T03:36:46.617Z,14.10
2023-05-23T03:39:13.379Z,14.20
2023-05-23T03:41:40.191Z,14.30
2023-05-23T03:44:07.832Z,14.40
2023-05-23T03:46:35.012Z,14.40
2023-05-23T03:49:01.796Z,14.50
2023-05-23T03:51:29.212Z,14.50
2023-05-23T03:53:56.064Z,14.50
2023-05-23T03:56:22.986Z,14.50
2023-05-23T03:58:49.721Z,14.50
2023-05-23T04:01:16.512Z,14.40
2023-05-23T04:03:43.336Z,14.50
2023-05-23T04:06:12.232Z,14.40
2023-05-23T04:08:41.925Z,14.40
2023-05-23T04:11:08.680Z,14.40
2023-05-23T04:13:35.464Z,14.30
2023-05-23T04:16:05.498Z,14.30
2023-05-23T04:18:38.936Z,14.20
2023-05-23T04:21:05.980Z,14.20
2023-05-23T04:23:32.871Z,14.10
2023-05-23T04:26:00.363Z,14.10
2023-05-23T04:28:27.803Z,14.10
2023-05-23T04:30:56.172Z,14.10
2023-05-23T04:33:23.051Z,14.10
2023-05-23T04:35:50.048Z,14.20
2023-05-23T04:38:17.101Z,14.20
2023-05-23T04:40:43.879Z,14.20
2023-05-23T04:43:14.190Z,14.30
2023-05-23T04:45:41.605Z,14.30
2023-05-23T04:48:08.767Z,14.40
2023-05-23T04:50:35.972Z,14.40
2023-05-23T04:53:02.890Z,14.40
2023-05-23T04:55:29.750Z,14.50
2023-05-23T04:57:56.696Z,14.50
2023-05-23T05:00:23.659Z,14.60
2023-05-23T05:02:51.511Z,14.60
2023-05-23T05:05:19.532Z,14.60
2023-05-23T05:07:46.358Z,14.80
2023-05-23T05:10:17.760Z,14.60
2023-05-23T05:12:46.864Z,14.70
2023-05-23T05:15:13.985Z,14.70
2023-05-23T05:17:42.079Z,14.70
2023-05-23T05:20:10.918Z,14.70
2023-05-23T05:22:40.812Z,14.70
2023-05-23T05:25:09.554Z,14.70
2023-05-23T05:27:39.785Z,14.70
2023-05-23T05:30:08.782Z,14.70
2023-05-23T05:32:35.636Z,14.70
2023-05-23T05:35:03.287Z,14.70
2023-05-23T05:37:30.411Z,14.70
2023-05-23T05:39:57.209Z,14.60
2023-05-23T05:42:24.259Z,14.60
2023-05-23T05:44:51.036Z,14.60
2023-05-23T05:47:17.884Z,14.50
2023-05-23T05:49:44.733Z,14.50
2023-05-23T05:52:11.539Z,14.50
2023-05-23T05:54:38.306Z,14.50
2023-05-23T05:57:05.347Z,14.60
2023-05-23T05:59:32.719Z,14.80
2023-05-23T06:01:59.895Z,14.80
2023-05-23T06:04:26.770Z,14.80
2023-05-23T06:06:53.596Z,14.90
2023-05-23T06:09:20.739Z,15.10
2023-05-23T06:11:47.516Z,15.20
2023-05-23T06:14:14.273Z,15.30
2023-05-23T06:16:41.769Z,15.30
2023-05-23T06:19:08.718Z,15.50
2023-05-23T06:21:36.186Z,15.50
2023-05-23T06:24:03.026Z,15.50
2023-05-23T06:26:30.858Z,15.60
2023-05-23T06:28:57.718Z,15.60
2023-05-23T06:31:24.571Z,15.50
2023-05-23T06:33:51.571Z,15.60
2023-05-23T06:36:18.420Z,15.50
2023-05-23T06:38:45.262Z,15.40
2023-05-23T06:41:12.127Z,15.40
2023-05-23T06:43:38.917Z,15.40
2023-05-23T06:46:06.743Z,15.40
2023-05-23T06:48:33.683Z,15.30
2023-05-23T06:51:00.611Z,15.30
2023-05-23T06:53:27.409Z,15.40
2023-05-23T06:55:54.137Z,15.40
2023-05-23T06:58:24.896Z,15.50
2023-05-23T07:00:51.747Z,15.40
2023-05-23T07:03:18.655Z,15.40
2023-05-23T07:05:45.534Z,15.40
2023-05-23T07:08:12.962Z,15.40
2023-05-23T07:10:41.609Z,15.40
2023-05-23T07:13:09.005Z,15.40
2023-05-23T07:15:36.140Z,15.40
2023-05-23T07:18:03.036Z,15.50
2023-05-23T07:20:30.032Z,15.60
2023-05-23T07:22:57.289Z,15.70
2023-05-23T07:25:24.091Z,15.70
2023-05-23T07:27:52.623Z,15.80
2023-05-23T07:30:20.277Z,15.90
2023-05-23T07:32:48.039Z,16.10
2023-05-23T07:35:16.830Z,16.10
2023-05-23T07:37:44.872Z,16.10
2023-05-23T07:40:11.846Z,16.20
2023-05-23T07:42:38.587Z,16.10
2023-05-23T07:45:05.942Z,16.00
2023-05-23T07:47:32.973Z,15.90
2023-05-23T07:50:02.101Z,15.80
2023-05-23T07:52:31.088Z,15.70
2023-05-23T07:54:58.726Z,15.70
2023-05-23T07:57:26.047Z,15.80
2023-05-23T07:59:53.825Z,15.90
2023-05-23T08:02:21.177Z,15.90
2023-05-23T08:04:49.897Z,15.90
2023-05-23T08:07:19.219Z,15.90
2023-05-23T08:09:46.319Z,15.90
2023-05-23T08:12:13.143Z,16.00
2023-05-23T08:14:50.757Z,15.90
2023-05-23T08:17:18.813Z,16.00
2023-05-23T08:19:46.007Z,16.10
2023-05-23T08:22:12.821Z,16.30
2023-05-23T08:24:39.595Z,16.50
2023-05-23T08:27:07.832Z,16.70
2023-05-23T08:29:41.151Z,16.80
2023-05-23T08:32:07.961Z,17.00
2023-05-23T08:34:35.024Z,17.20
2023-05-23T08:37:01.839Z,17.40
2023-05-23T08:39:28.628Z,17.40
2023-05-23T08:41:55.438Z,17.30
2023-05-23T08:44:22.228Z,17.10
2023-05-23T08:46:53.176Z,17.00
2023-05-23T08:49:22.704Z,16.90
2023-05-23T08:51:54.380Z,16.80
2023-05-23T08:54:22.182Z,16.80
2023-05-23T08:56:49.139Z,16.90
2023-05-23T08:59:16.561Z,17.10
2023-05-23T09:01:46.024Z,17.40
2023-05-23T09:04:12.829Z,17.50
2023-05-23T09:06:39.601Z,17.60
2023-05-23T09:09:07.232Z,17.70
2023-05-23T09:11:36.036Z,17.80
2023-05-23T09:14:05.000Z,17.70
2023-05-23T09:16:34.821Z,17.60
2023-05-23T09:19:11.993Z,17.70
2023-05-23T09:21:46.046Z,17.70
2023-05-23T09:24:13.164Z,17.70
2023-05-23T09:26:40.029Z,17.70
2023-05-23T09:29:07.578Z,17.70
2023-05-23T09:31:34.617Z,17.60
2023-05-23T09:34:01.639Z,17.60
2023-05-23T09:36:30.422Z,17.70
2023-05-23T09:38:57.459Z,17.90
2023-05-23T09:41:25.054Z,18.00
2023-05-23T09:43:55.042Z,18.00
2023-05-23T09:46:23.391Z,18.10
2023-05-23T09:48:52.934Z,18.20
2023-05-23T09:51:21.420Z,18.20
2023-05-23T09:53:49.942Z,18.10
2023-05-23T09:56:17.520Z,18.10
2023-05-23T09:58:51.086Z,18.20
2023-05-23T10:01:18.165Z,18.20
2023-05-23T10:03:51.065Z,18.20
2023-05-23T10:06:36.348Z,18.10
2023-05-23T10:09:06.062Z,18.20
2023-05-23T10:11:36.067Z,18.20
2023-05-23T10:14:09.533Z,18.30
2023-05-23T10:16:50.832Z,18.20
2023-05-23T10:19:26.048Z,17.90
2023-05-23T10:21:59.621Z,17.80
2023-05-23T10:24:29.059Z,17.60
2023-05-23T10:26:56.215Z,17.50
2023-05-23T10:29:23.450Z,17.40
2023-05-23T10:31:51.998Z,17.30
2023-05-23T10:34:32.528Z,17.30
2023-05-23T10:37:17.710Z,17.40
2023-05-23T10:40:22.524Z,17.60
2023-05-23T10:43:18.644Z,17.70
2023-05-23T10:45:46.776Z,18.00
2023-05-23T10:48:44.464Z,18.20
2023-05-23T10:51:15.740Z,18.20
2023-05-23T10:53:47.245Z,18.00
2023-05-23T10:56:23.422Z,17.70
2023-05-23T10:58:54.830Z,17.60
2023-05-23T11:01:23.931Z,17.50
2023-05-23T11:03:55.296Z,17.30
2023-05-23T11:06:52.881Z,17.30
2023-05-23T11:09:21.841Z,17.20
2023-05-23T11:11:54.381Z,17.30
2023-05-23T11:14:33.322Z,17.40
2023-05-23T11:17:01.949Z,17.50
2023-05-23T11:19:29.777Z,17.60
2023-05-23T11:22:03.739Z,17.90
2023-05-23T11:24:52.366Z,17.90
2023-05-23T11:27:41.344Z,18.10
2023-05-23T11:30:16.118Z,18.30
2023-05-23T11:32:52.122Z,18.40
2023-05-23T11:35:21.047Z,18.60
2023-05-23T11:37:48.165Z,18.90
2023-05-23T11:40:36.180Z,19.20
2023-05-23T11:43:10.891Z,19.30
2023-05-23T11:45:39.240Z,19.70
2023-05-23T11:48:15.105Z,20.00
2023-05-23T11:50:52.898Z,20.20
2023-05-23T11:53:22.415Z,20.00
2023-05-23T11:55:59.898Z,19.60
2023-05-23T11:58:34.868Z,19.30
2023-05-23T12:01:12.356Z,19.10
2023-05-23T12:03:51.038Z,18.90
2023-05-23T12:06:24.631Z,18.70
2023-05-23T12:08:54.548Z,18.50
2023-05-23T12:11:23.588Z,18.30
2023-05-23T12:13:53.301Z,18.50
2023-05-23T12:16:21.504Z,18.60
2023-05-23T12:18:48.457Z,18.70
2023-05-23T12:21:15.424Z,19.00
2023-05-23T12:23:42.377Z,19.40
2023-05-23T12:26:10.224Z,20.20
2023-05-23T12:28:45.657Z,21.00
2023-05-23T12:31:14.086Z,21.50
2023-05-23T12:33:45.654Z,21.90
2023-05-23T12:36:12.933Z,22.50
2023-05-23T12:38:40.971Z,22.40
2023-05-23T12:41:12.566Z,21.90
2023-05-23T12:43:53.905Z,21.10
2023-05-23T12:46:29.855Z,20.80
2023-05-23T12:48:57.092Z,21.30
2023-05-23T12:51:23.905Z,22.20
2023-05-23T12:53:51.503Z,21.90
2023-05-23T12:56:18.413Z,21.70
2023-05-23T12:58:45.276Z,21.70
2023-05-23T13:01:12.520Z,21.70
2023-05-23T13:03:39.386Z,21.20
2023-05-23T13:06:07.171Z,20.60
2023-05-23T13:08:34.059Z,20.00
2023-05-23T13:11:00.859Z,19.60
2023-05-23T13:13:27.699Z,19.90
2023-05-23T13:15:54.794Z,20.40
2023-05-23T13:18:21.693Z,20.60
2023-05-23T13:20:48.526Z,21.00
2023-05-23T13:23:15.566Z,21.30
2023-05-23T13:25:42.537Z,21.20
2023-05-23T13:28:10.596Z,20.80
2023-05-23T13:30:37.394Z,20.50
2023-05-23T13:33:04.908Z,20.10
2023-05-23T13:35:31.724Z,19.70
2023-05-23T13:37:58.508Z,19.60
2023-05-23T13:40:27.431Z,19.60
2023-05-23T13:42:54.205Z,19.40
2023-05-23T13:45:22.985Z,19.10
2023-05-23T13:47:49.895Z,18.80
2023-05-23T13:50:17.338Z,18.50
2023-05-23T13:52:48.256Z,18.30
2023-05-23T13:55:17.260Z,18.30
2023-05-23T13:57:44.381Z,18.30
2023-05-23T14:00:12.328Z,18.30
2023-05-23T14:02:39.129Z,18.20
2023-05-23T14:05:07.284Z,18.40
2023-05-23T14:07:34.085Z,18.50
2023-05-23T14:10:00.981Z,18.60
2023-05-23T14:12:29.058Z,18.70
2023-05-23T14:14:55.858Z,18.60
2023-05-23T14:17:22.660Z,18.40
2023-05-23T14:19:49.514Z,18.20
2023-05-23T14:22:16.313Z,18.10
2023-05-23T14:24:43.289Z,18.00
2023-05-23T14:27:11.544Z,18.00
2023-05-23T14:29:38.949Z,17.90
2023-05-23T14:32:06.309Z,18.00
2023-05-23T14:34:33.239Z,18.00
2023-05-23T14:37:01.098Z,18.10
2023-05-23T14:39:28.927Z,18.30
2023-05-23T14:41:55.940Z,18.60
2023-05-23T14:44:23.001Z,18.70
2023-05-23T14:46:50.161Z,18.70
2023-05-23T14:49:17.902Z,18.70
2023-05-23T14:51:50.221Z,18.70
2023-05-23T14:54:17.904Z,18.70
2023-05-23T14:56:44.661Z,18.80
2023-05-23T14:59:11.533Z,18.90
2023-05-23T15:01:40.074Z,18.60
2023-05-23T15:04:09.049Z,18.60
2023-05-23T15:06:38.746Z,18.50
2023-05-23T15:09:06.102Z,18.60
2023-05-23T15:11:34.784Z,18.70
2023-05-23T15:14:01.691Z,18.80
2023-05-23T15:16:32.453Z,18.80
2023-05-23T15:18:59.854Z,18.80
2023-05-23T15:21:26.737Z,18.80
2023-05-23T15:23:54.075Z,18.60
2023-05-23T15:26:20.855Z,18.60
2023-05-23T15:28:47.836Z,18.60
2023-05-23T15:31:15.829Z,18.50
2023-05-23T15:33:42.898Z,18.50
2023-05-23T15:36:09.975Z,18.40
2023-05-23T15:38:36.733Z,18.30
2023-05-23T15:41:04.727Z,18.30
2023-05-23T15:43:32.521Z,18.20
2023-05-23T15:46:00.445Z,18.10
2023-05-23T15:48:27.444Z,17.80
2023-05-23T15:50:54.395Z,17.50
2023-05-23T15:53:21.351Z,17.20
2023-05-23T15:55:48.095Z,17.00
2023-05-23T15:58:15.922Z,16.90
2023-05-23T16:00:42.979Z,16.90
2023-05-23T16:03:09.980Z,16.70
2023-05-23T16:05:36.810Z,16.70
2023-05-23T16:08:03.688Z,16.70
2023-05-23T16:10:30.502Z,16.70
2023-05-23T16:12:57.284Z,16.60
2023-05-23T16:15:24.041Z,16.50
2023-05-23T16:17:50.859Z,16.40
2023-05-23T16:20:17.810Z,16.40
2023-05-23T16:22:45.790Z,16.30
2023-05-23T16:25:12.866Z,16.30
2023-05-23T16:27:40.439Z,16.40
2023-05-23T16:30:08.126Z,16.50
2023-05-23T16:32:35.048Z,16.60
2023-05-23T16:35:01.909Z,16.60
2023-05-23T16:37:28.689Z,16.70
2023-05-23T16:39:55.457Z,16.80
2023-05-23T16:42:22.340Z,16.90
2023-05-23T16:44:49.270Z,17.00
2023-05-23T16:47:16.783Z,17.00
2023-05-23T16:49:43.607Z,17.00
2023-05-23T16:52:10.359Z,16.90
2023-05-23T16:54:37.147Z,16.90
2023-05-23T16:57:05.437Z,16.80
2023-05-23T16:59:32.558Z,16.90
2023-05-23T17:01:59.349Z,16.90
2023-05-23T17:04:26.192Z,16.90
2023-05-23T17:06:52.987Z,16.80
2023-05-23T17:09:22.052Z,16.70
2023-05-23T17:11:51.049Z,16.70
2023-05-23T17:14:17.863Z,16.60
2023-05-23T17:16:47.258Z,16.50
2023-05-23T17:19:14.084Z,16.50
2023-05-23T17:21:41.118Z,16.40
2023-05-23T17:24:07.880Z,16.40
2023-05-23T17:26:34.624Z,16.30
2023-05-23T17:29:01.441Z,16.30
2023-05-23T17:31:29.783Z,16.30
2023-05-23T17:33:57.724Z,16.20
2023-05-23T17:36:26.166Z,16.20
2023-05-23T17:38:53.921Z,16.10
2023-05-23T17:41:23.039Z,16.10
2023-05-23T17:43:50.294Z,16.10
2023-05-23T17:46:18.171Z,16.00
2023-05-23T17:48:48.048Z,16.00
2023-05-23T17:51:15.870Z,16.00
2023-05-23T17:53:43.266Z,16.00
2023-05-23T17:56:10.550Z,16.10
2023-05-23T17:58:38.773Z,16.00
2023-05-23T18:01:06.847Z,16.00
2023-05-23T18:03:33.660Z,15.90
2023-05-23T18:06:01.436Z,15.80
2023-05-23T18:08:28.250Z,15.70
2023-05-23T18:10:55.206Z,15.70
2023-05-23T18:13:22.017Z,15.70
2023-05-23T18:15:50.450Z,15.70
2023-05-23T18:18:20.018Z,15.60
2023-05-23T18:20:47.122Z,15.50
2023-05-23T18:23:13.905Z,15.50
2023-05-23T18:25:40.692Z,15.50
2023-05-23T18:28:07.676Z,15.40
2023-05-23T18:30:34.467Z,15.40
2023-05-23T18:33:01.412Z,15.40
2023-05-23T18:35:28.422Z,15.30
2023-05-23T18:37:55.341Z,15.30
2023-05-23T18:40:23.828Z,15.30
2023-05-23T18:42:51.931Z,15.30
2023-05-23T18:45:19.169Z,15.20
2023-05-23T18:47:46.210Z,15.10
2023-05-23T18:50:13.363Z,15.00
2023-05-23T18:52:40.564Z,14.90
2023-05-23T18:55:08.805Z,14.80
2023-05-23T18:57:35.576Z,14.70
2023-05-23T19:00:04.612Z,14.70
2023-05-23T19:02:31.853Z,14.70
2023-05-23T19:04:58.630Z,14.70
2023-05-23T19:07:25.586Z,14.60
2023-05-23T19:09:52.424Z,14.40
2023-05-23T19:12:19.766Z,14.40
2023-05-23T19:14:46.961Z,14.30
2023-05-23T19:17:13.738Z,14.30
2023-05-23T19:19:40.592Z,14.30
2023-05-23T19:22:07.640Z,14.30
2023-05-23T19:24:34.550Z,14.20
2023-05-23T19:27:02.251Z,14.10
2023-05-23T19:29:29.023Z,14.10
2023-05-23T19:31:55.963Z,14.10
2023-05-23T19:34:22.806Z,14.10
2023-05-23T19:36:49.888Z,14.00
2023-05-23T19:39:16.703Z,14.00
2023-05-23T19:41:44.527Z,13.80
2023-05-23T19:44:29.887Z,13.70
2023-05-23T19:46:56.799Z,13.70
2023-05-23T19:49:23.984Z,13.60
2023-05-23T19:51:50.829Z,13.50
2023-05-23T19:54:17.628Z,13.50
2023-05-23T19:56:45.548Z,13.50
2023-05-23T19:59:13.058Z,13.40
2023-05-23T20:01:40.364Z,13.40
2023-05-23T20:04:07.429Z,13.30
2023-05-23T20:06:34.466Z,13.30
2023-05-23T20:09:02.831Z,13.20
2023-05-23T20:11:31.337Z,13.30
2023-05-23T20:13:58.073Z,13.30
2023-05-23T20:16:26.436Z,13.20
2023-05-23T20:18:53.239Z,13.10
2023-05-23T20:21:20.279Z,13.00
2023-05-23T20:23:47.107Z,13.00
2023-05-23T20:26:13.900Z,13.00
2023-05-23T20:28:41.066Z,13.00
2023-05-23T20:31:07.927Z,12.90
2023-05-23T20:33:34.702Z,12.90
2023-05-23T20:36:01.582Z,12.90
2023-05-23T20:38:28.809Z,12.90
2023-05-23T20:40:55.608Z,12.90
2023-05-23T20:43:22.525Z,12.90
2023-05-23T20:45:49.276Z,12.90
2023-05-23T20:48:16.545Z,12.80
2023-05-23T20:50:43.969Z,12.80
2023-05-23T20:53:12.304Z,12.80
2023-05-23T20:55:39.262Z,12.60
2023-05-23T20:58:07.130Z,12.60
2023-05-23T21:00:33.872Z,12.40
2023-05-23T21:03:02.347Z,12.20
2023-05-23T21:05:30.414Z,12.10
2023-05-23T21:07:57.210Z,11.90
2023-05-23T21:10:23.983Z,11.80
2023-05-23T21:12:51.598Z,11.60
2023-05-23T21:15:18.611Z,11.50
2023-05-23T21:17:48.254Z,11.30
2023-05-23T21:20:16.103Z,11.20
2023-05-23T21:22:42.873Z,11.00
2023-05-23T21:25:09.854Z,11.00
2023-05-23T21:27:36.738Z,10.80
2023-05-23T21:30:05.391Z,10.80
2023-05-23T21:32:32.848Z,10.60
2023-05-23T21:34:59.920Z,10.60
2023-05-23T21:37:26.844Z,10.50
2023-05-23T21:39:53.657Z,10.40
2023-05-23T21:42:20.870Z,10.30
2023-05-23T21:44:47.707Z,10.30
2023-05-23T21:47:14.548Z,10.30
2023-05-23T21:49:41.349Z,10.20
2023-05-23T21:52:08.215Z,10.20
2023-05-23T21:54:34.978Z,10.20
2023-05-23T21:57:02.032Z,10.10
2023-05-23T21:59:29.170Z,10.10
2023-05-23T22:01:56.200Z,10.00
2023-05-23T22:04:23.045Z,9.90
2023-05-23T22:06:49.917Z,9.90
2023-05-23T22:09:16.804Z,9.80
2023-05-23T22:11:43.626Z,9.80
2023-05-23T22:14:10.708Z,9.70
2023-05-23T22:16:40.734Z,9.70
2023-05-23T22:19:09.788Z,9.70
2023-05-23T22:21:36.868Z,9.60
2023-05-23T22:24:04.657Z,9.60
2023-05-23T22:26:31.994Z,9.50
2023-05-23T22:28:58.746Z,9.50
2023-05-23T22:31:26.275Z,9.50
2023-05-23T22:33:53.086Z,9.40
2023-05-23T22:36:20.089Z,9.40
2023-05-23T22:38:46.844Z,9.40
2023-05-23T22:41:14.783Z,9.50
2023-05-23T22:43:41.654Z,9.50
2023-05-23T22:46:08.763Z,9.50
2023-05-23T22:48:35.603Z,9.50
2023-05-23T22:51:03.099Z,9.50
2023-05-23T22:53:30.375Z,9.40
2023-05-23T22:55:57.533Z,9.40
2023-05-23T22:58:24.438Z,9.30
2023-05-23T23:00:51.413Z,9.30
2023-05-23T23:03:18.536Z,9.30
2023-05-23T23:05:45.525Z,9.20
2023-05-23T23:08:12.649Z,9.20
2023-05-23T23:10:41.864Z,9.20
2023-05-23T23:13:08.884Z,9.10
2023-05-23T23:15:36.447Z,9.10
2023-05-23T23:18:03.331Z,9.10
2023-05-23T23:20:30.376Z,9.00
2023-05-23T23:22:57.529Z,9.00
2023-05-23T23:25:24.439Z,9.00
2023-05-23T23:27:51.176Z,9.00
2023-05-23T23:30:17.948Z,8.90
2023-05-23T23:32:46.748Z,8.80
2023-05-23T23:35:13.608Z,8.80
2023-05-23T23:37:40.502Z,8.80
2023-05-23T23:40:08.570Z,8.70
2023-05-23T23:42:35.486Z,8.70
2023-05-23T23:45:02.623Z,8.70
2023-05-23T23:47:29.523Z,8.60
2023-05-23T23:49:56.343Z,8.60
2023-05-23T23:52:23.080Z,8.60
2023-05-23T23:54:49.878Z,8.60
2023-05-23T23:57:17.470Z,8.50
2023-05-23T23:59:44.242Z,8.50
